createdAt,value
2023-04-18T07:19:01.526Z,9.68
2023-04-18T07:21:29.118Z,9.87
2023-04-18T07:26:13.750Z,9.84
2023-04-18T07:28:41.150Z,9.77
2023-04-18T07:31:11.494Z,9.96
2023-04-18T07:33:39.423Z,10.10
2023-04-18T07:36:07.511Z,9.99
2023-04-18T07:38:37.849Z,9.87
2023-04-18T07:41:05.338Z,10.04
2023-04-18T07:43:32.751Z,9.93
2023-04-18T07:46:00.799Z,10.16
2023-04-18T07:48:28.350Z,10.55
2023-04-18T07:50:55.776Z,10.35
2023-04-18T07:53:23.351Z,10.41
2023-04-18T07:55:51.439Z,10.57
2023-04-18T07:58:18.842Z,10.23
2023-04-18T08:00:46.467Z,10.28
2023-04-18T08:03:14.349Z,10.44
2023-04-18T08:05:43.503Z,10.62
2023-04-18T08:08:12.904Z,11.04
2023-04-18T08:10:40.514Z,10.74
2023-04-18T08:13:08.371Z,11.11
2023-04-18T08:15:36.077Z,11.01
2023-04-18T08:18:03.690Z,10.91
2023-04-18T08:20:31.405Z,10.84
2023-04-18T08:23:07.560Z,10.99
2023-04-18T08:25:37.554Z,11.02
2023-04-18T08:28:05.491Z,11.30
2023-04-18T08:30:32.978Z,11.48
2023-04-18T08:33:01.229Z,11.01
2023-04-18T08:35:28.755Z,11.21
2023-04-18T08:37:56.159Z,11.63
2023-04-18T08:40:24.060Z,11.24
2023-04-18T08:42:56.288Z,11.43
2023-04-18T08:45:24.455Z,11.48
2023-04-18T08:47:52.303Z,11.25
2023-04-18T08:50:20.065Z,11.73
2023-04-18T08:52:50.574Z,11.94
2023-04-18T08:55:19.256Z,12.26
2023-04-18T08:57:47.587Z,12.21
2023-04-18T09:00:18.091Z,11.88
2023-04-18T09:02:47.101Z,12.25
2023-04-18T09:05:21.241Z,12.54
2023-04-18T09:07:53.105Z,12.85
2023-04-18T09:10:34.911Z,13.13
2023-04-18T09:13:04.508Z,13.21
2023-04-18T09:15:32.527Z,13.18
2023-04-18T09:18:04.894Z,12.94
2023-04-18T09:20:42.585Z,13.24
2023-04-18T09:23:16.477Z,13.41
2023-04-18T09:25:51.026Z,13.16
2023-04-18T09:28:33.475Z,13.16
2023-04-18T09:31:13.047Z,13.11
2023-04-18T09:33:54.286Z,13.70
2023-04-18T09:36:27.852Z,14.04
2023-04-18T09:38:57.186Z,14.08
2023-04-18T09:41:24.736Z,13.94
2023-04-18T09:44:17.129Z,14.14
2023-04-18T09:46:47.607Z,14.12
2023-04-18T09:49:16.920Z,13.75
2023-04-18T09:51:46.310Z,13.86
2023-04-18T09:54:18.505Z,14.21
2023-04-18T09:56:50.658Z,14.13
2023-04-18T09:59:49.328Z,14.10
2023-04-18T10:02:24.626Z,14.14
2023-04-18T10:04:54.318Z,13.86
2023-04-18T10:07:22.781Z,14.18
2023-04-18T10:09:50.759Z,14.47
2023-04-18T10:12:18.740Z,14.07
2023-04-18T10:14:46.513Z,14.46
2023-04-18T10:17:16.192Z,14.82
2023-04-18T10:19:46.136Z,14.66
2023-04-18T10:22:13.538Z,14.78
2023-04-18T10:24:56.355Z,15.02
2023-04-18T10:27:48.719Z,15.08
2023-04-18T10:30:18.046Z,15.26
2023-04-18T10:32:48.506Z,14.43
2023-04-18T10:35:15.889Z,14.21
2023-04-18T10:37:59.090Z,14.29
2023-04-18T10:40:36.065Z,15.11
2023-04-18T10:43:03.468Z,15.25
2023-04-18T10:45:36.357Z,15.58
2023-04-18T10:48:30.359Z,15.66
2023-04-18T10:51:21.094Z,15.54
2023-04-18T10:53:57.829Z,15.08
2023-04-18T10:56:28.062Z,14.90
2023-04-18T10:58:59.277Z,14.95
2023-04-18T11:01:33.174Z,15.87
2023-04-18T11:04:01.604Z,16.06
2023-04-18T11:06:30.444Z,16.15
2023-04-18T11:09:14.607Z,16.09
2023-04-18T11:11:43.576Z,16.16
2023-04-18T11:14:11.631Z,15.93
2023-04-18T11:16:40.621Z,16.04
2023-04-18T11:19:26.608Z,16.33
2023-04-18T11:22:01.162Z,15.92
2023-04-18T11:24:29.211Z,15.58
2023-04-18T11:26:57.161Z,15.85
2023-04-18T11:29:24.585Z,15.49
2023-04-18T11:31:56.697Z,15.63
2023-04-18T11:34:31.476Z,15.69
2023-04-18T11:36:59.203Z,15.54
2023-04-18T11:39:26.682Z,15.65
2023-04-18T11:41:56.519Z,15.41
2023-04-18T11:44:25.623Z,15.58
2023-04-18T11:46:54.265Z,15.83
2023-04-18T11:49:34.386Z,15.64
2023-04-18T11:52:10.992Z,15.55
2023-04-18T11:54:45.529Z,15.58
2023-04-18T11:57:30.485Z,16.31
2023-04-18T12:00:00.980Z,16.20
2023-04-18T12:02:49.656Z,16.65
2023-04-18T12:05:38.902Z,16.47
2023-04-18T12:08:21.092Z,16.30
2023-04-18T12:10:54.619Z,16.58
2023-04-18T12:13:33.361Z,16.54
2023-04-18T12:16:02.808Z,16.74
2023-04-18T12:18:31.556Z,16.83
2023-04-18T12:21:02.043Z,16.85
2023-04-18T12:23:34.398Z,16.73
2023-04-18T12:26:18.291Z,16.36
2023-04-18T12:28:50.436Z,16.56
2023-04-18T12:31:18.184Z,16.71
2023-04-18T12:33:45.645Z,17.51
2023-04-18T12:36:13.158Z,17.72
2023-04-18T12:38:40.701Z,17.77
2023-04-18T12:41:08.301Z,18.46
2023-04-18T12:43:35.705Z,19.26
2023-04-18T12:46:03.128Z,18.98
2023-04-18T12:48:30.571Z,18.84
2023-04-18T12:50:57.988Z,18.86
2023-04-18T12:53:25.732Z,18.61
2023-04-18T12:55:53.220Z,17.98
2023-04-18T12:58:20.897Z,19.30
2023-04-18T13:00:48.321Z,18.49
2023-04-18T13:03:15.981Z,19.00
2023-04-18T13:05:43.689Z,19.38
2023-04-18T13:08:17.246Z,19.79
2023-04-18T13:10:47.751Z,20.09
2023-04-18T13:13:15.602Z,19.56
2023-04-18T13:15:43.279Z,20.41
2023-04-18T13:18:10.684Z,19.91
2023-04-18T13:20:38.092Z,20.36
2023-04-18T13:23:05.541Z,20.24
2023-04-18T13:25:33.023Z,20.03
2023-04-18T13:28:01.150Z,20.48
2023-04-18T13:30:29.448Z,20.71
2023-04-18T13:32:57.001Z,21.14
2023-04-18T13:35:24.503Z,21.22
2023-04-18T13:37:51.899Z,21.40
2023-04-18T13:40:19.325Z,21.81
2023-04-18T13:42:46.751Z,21.82
2023-04-18T13:45:14.198Z,21.58
2023-04-18T13:47:41.651Z,21.72
2023-04-18T13:50:10.174Z,21.57
2023-04-18T13:52:37.644Z,22.19
2023-04-18T13:55:06.032Z,21.76
2023-04-18T13:57:34.414Z,21.87
2023-04-18T14:00:01.900Z,22.63
2023-04-18T14:02:29.492Z,22.58
2023-04-18T14:04:58.323Z,22.38
2023-04-18T14:07:25.914Z,22.42
2023-04-18T14:09:54.037Z,22.83
2023-04-18T14:12:21.903Z,23.00
2023-04-18T14:14:49.319Z,23.17
2023-04-18T14:17:16.746Z,22.71
2023-04-18T14:19:44.168Z,22.62
2023-04-18T14:22:12.171Z,22.83
2023-04-18T14:24:39.627Z,22.07
2023-04-18T14:27:07.078Z,22.62
2023-04-18T14:29:34.484Z,21.25
2023-04-18T14:32:03.554Z,21.13
2023-04-18T14:34:33.136Z,20.42
2023-04-18T14:37:01.437Z,20.44
2023-04-18T14:39:28.956Z,20.18
2023-04-18T14:41:57.696Z,20.48
2023-04-18T14:44:25.134Z,20.75
2023-04-18T14:46:52.578Z,20.94
2023-04-18T14:49:20.075Z,21.08
2023-04-18T14:51:47.787Z,21.05
2023-04-18T14:54:15.193Z,21.36
2023-04-18T14:56:42.698Z,21.98
2023-04-18T14:59:10.274Z,22.87
2023-04-18T15:01:37.706Z,22.70
2023-04-18T15:04:06.148Z,22.75
2023-04-18T15:06:33.903Z,22.66
2023-04-18T15:09:01.394Z,22.65
2023-04-18T15:11:28.854Z,22.90
2023-04-18T15:13:57.114Z,22.99
2023-04-18T15:16:24.521Z,22.70
2023-04-18T15:18:51.931Z,22.59
2023-04-18T15:21:19.419Z,22.27
2023-04-18T15:23:46.810Z,22.38
2023-04-18T15:26:14.302Z,22.97
2023-04-18T15:28:41.679Z,22.58
2023-04-18T15:31:09.755Z,22.05
2023-04-18T15:33:37.985Z,21.55
2023-04-18T15:36:05.991Z,22.09
2023-04-18T15:38:33.457Z,21.91
2023-04-18T15:41:00.919Z,21.91
2023-04-18T15:43:28.430Z,22.24
2023-04-18T15:45:55.887Z,22.04
2023-04-18T15:48:23.317Z,21.76
2023-04-18T15:50:52.475Z,21.86
2023-04-18T15:53:20.153Z,22.04
2023-04-18T15:55:47.944Z,21.40
2023-04-18T15:58:15.385Z,21.40
2023-04-18T16:00:44.043Z,21.57
2023-04-18T16:03:12.229Z,20.62
2023-04-18T16:05:39.835Z,21.29
2023-04-18T16:08:08.995Z,21.58
2023-04-18T16:10:37.936Z,21.50
2023-04-18T16:13:06.813Z,21.30
2023-04-18T16:15:41.585Z,20.96
2023-04-18T16:18:09.341Z,20.64
2023-04-18T16:20:36.984Z,20.13
2023-04-18T16:23:04.391Z,20.34
2023-04-18T16:25:31.877Z,20.69
2023-04-18T16:27:59.281Z,20.18
2023-04-18T16:30:26.663Z,20.34
2023-04-18T16:32:54.476Z,19.97
2023-04-18T16:35:23.017Z,19.81
2023-04-18T16:37:50.397Z,19.73
2023-04-18T16:40:17.769Z,19.76
2023-04-18T16:42:45.436Z,20.22
2023-04-18T16:45:12.872Z,19.97
2023-04-18T16:47:40.352Z,19.57
2023-04-18T16:50:08.941Z,19.24
2023-04-18T16:52:36.357Z,19.45
2023-04-18T16:55:03.832Z,19.43
2023-04-18T16:57:31.484Z,19.30
2023-04-18T17:00:02.230Z,19.58
2023-04-18T17:02:31.906Z,19.66
2023-04-18T17:05:00.149Z,19.16
2023-04-18T17:07:27.626Z,19.15
2023-04-18T17:09:55.050Z,19.54
2023-04-18T17:12:22.415Z,19.33
2023-04-18T17:14:49.802Z,19.25
2023-04-18T17:17:17.191Z,19.22
2023-04-18T17:19:44.569Z,18.90
2023-04-18T17:22:12.226Z,19.42
2023-04-18T17:24:39.602Z,19.44
2023-04-18T17:27:06.981Z,19.35
2023-04-18T17:29:34.446Z,18.73
2023-04-18T17:32:01.903Z,18.71
2023-04-18T17:34:29.408Z,18.59
2023-04-18T17:36:57.654Z,18.59
2023-04-18T17:39:25.089Z,18.86
2023-04-18T17:41:53.042Z,18.78
2023-04-18T17:44:20.830Z,18.42
2023-04-18T17:46:49.985Z,18.24
2023-04-18T17:49:18.032Z,18.31
2023-04-18T17:51:45.711Z,18.14
2023-04-18T17:54:14.160Z,18.50
2023-04-18T17:56:41.744Z,18.26
2023-04-18T17:59:09.918Z,18.26
2023-04-18T18:01:37.903Z,18.00
2023-04-18T18:04:05.512Z,17.95
2023-04-18T18:06:33.040Z,17.63
2023-04-18T18:09:00.451Z,17.59
2023-04-18T18:11:27.871Z,17.84
2023-04-18T18:13:57.370Z,17.48
2023-04-18T18:16:25.008Z,17.75
2023-04-18T18:18:52.567Z,17.71
2023-04-18T18:21:19.979Z,17.79
2023-04-18T18:23:47.371Z,17.84
2023-04-18T18:26:14.819Z,17.73
2023-04-18T18:28:42.181Z,18.03
2023-04-18T18:31:09.674Z,17.85
2023-04-18T18:33:37.153Z,17.69
2023-04-18T18:36:05.632Z,17.56
2023-04-18T18:38:33.109Z,17.83
2023-04-18T18:41:03.595Z,17.67
2023-04-18T18:43:32.106Z,17.69
2023-04-18T18:45:59.744Z,17.71
2023-04-18T18:48:30.397Z,17.65
2023-04-18T18:50:58.367Z,17.81
2023-04-18T18:53:25.854Z,17.65
2023-04-18T18:55:53.279Z,17.70
2023-04-18T18:58:20.821Z,17.76
2023-04-18T19:00:48.259Z,17.65
2023-04-18T19:03:19.163Z,17.42
2023-04-18T19:05:47.355Z,16.99
2023-04-18T19:08:15.019Z,16.72
2023-04-18T19:10:42.702Z,16.85
2023-04-18T19:13:10.480Z,17.17
2023-04-18T19:15:38.032Z,16.87
2023-04-18T19:18:05.842Z,16.85
2023-04-18T19:20:33.249Z,17.13
2023-04-18T19:23:00.726Z,17.20
2023-04-18T19:25:28.181Z,16.92
2023-04-18T19:27:55.610Z,16.89
2023-04-18T19:30:23.155Z,16.99
2023-04-18T19:32:50.687Z,16.61
2023-04-18T19:35:18.219Z,16.32
2023-04-18T19:37:45.607Z,16.31
2023-04-18T19:40:14.343Z,16.55
2023-04-18T19:42:41.814Z,16.33
2023-04-18T19:45:12.026Z,16.53
2023-04-18T19:47:39.460Z,16.29
2023-04-18T19:50:08.740Z,16.41
2023-04-18T19:52:36.513Z,16.38
2023-04-18T19:55:04.032Z,16.52
2023-04-18T19:57:31.549Z,16.64
2023-04-18T19:59:58.958Z,16.36
2023-04-18T20:02:26.696Z,16.21
2023-04-18T20:04:54.304Z,16.47
2023-04-18T20:07:23.148Z,16.42
2023-04-18T20:09:54.985Z,16.47
2023-04-18T20:12:23.642Z,16.48
2023-04-18T20:14:52.018Z,16.48
2023-04-18T20:17:19.468Z,16.30
2023-04-18T20:19:49.732Z,16.24
2023-04-18T20:22:18.804Z,16.25
2023-04-18T20:24:46.319Z,16.32
2023-04-18T20:27:14.001Z,16.35
2023-04-18T20:29:41.438Z,16.25
2023-04-18T20:32:08.894Z,16.27
2023-04-18T20:34:36.300Z,16.32
2023-04-18T20:37:07.351Z,16.28
2023-04-18T20:39:34.868Z,16.28
2023-04-18T20:42:04.409Z,16.24
2023-04-18T20:44:34.483Z,15.98
2023-04-18T20:47:02.383Z,16.07
2023-04-18T20:49:30.007Z,16.28
2023-04-18T20:51:57.405Z,16.07
2023-04-18T20:54:24.890Z,15.74
2023-04-18T20:56:52.281Z,15.97
2023-04-18T20:59:19.788Z,16.11
2023-04-18T21:01:47.212Z,15.84
2023-04-18T21:04:14.890Z,15.85
2023-04-18T21:06:42.894Z,15.60
2023-04-18T21:09:10.498Z,15.63
2023-04-18T21:11:37.880Z,15.90
2023-04-18T21:14:06.749Z,15.88
2023-04-18T21:16:34.557Z,15.84
2023-04-18T21:19:02.038Z,15.79
2023-04-18T21:21:30.060Z,15.76
2023-04-18T21:23:57.485Z,15.65
2023-04-18T21:26:24.868Z,16.06
2023-04-18T21:29:02.832Z,16.15
2023-04-18T21:31:34.492Z,15.91
2023-04-18T21:34:05.438Z,15.83
2023-04-18T21:36:33.167Z,15.86
2023-04-18T21:39:01.443Z,15.83
2023-04-18T21:41:29.164Z,15.83
2023-04-18T21:43:56.843Z,15.62
2023-04-18T21:46:24.918Z,15.69
2023-04-18T21:48:52.427Z,15.60
2023-04-18T21:51:19.829Z,15.70
2023-04-18T21:53:47.277Z,15.82
2023-04-18T21:56:14.732Z,15.71
2023-04-18T21:58:42.358Z,15.70
2023-04-18T22:01:09.810Z,15.63
2023-04-18T22:03:37.956Z,15.64
2023-04-18T22:06:05.966Z,15.73
2023-04-18T22:08:33.939Z,15.56
2023-04-18T22:11:01.697Z,15.58
2023-04-18T22:13:35.782Z,15.51
2023-04-18T22:16:04.048Z,15.54
2023-04-18T22:18:34.038Z,15.54
2023-04-18T22:21:03.483Z,15.46
2023-04-18T22:23:31.448Z,15.46
2023-04-18T22:25:58.943Z,15.47
2023-04-18T22:28:28.553Z,15.47
2023-04-18T22:30:56.337Z,15.44
2023-04-18T22:33:24.129Z,15.43
2023-04-18T22:35:51.855Z,15.24
2023-04-18T22:38:19.316Z,15.19
2023-04-18T22:40:46.823Z,15.20
2023-04-18T22:43:14.391Z,15.29
2023-04-18T22:45:42.026Z,15.14
2023-04-18T22:48:12.288Z,14.92
2023-04-18T22:50:42.988Z,14.90
2023-04-18T22:53:11.654Z,14.90
2023-04-18T22:55:44.404Z,14.62
2023-04-18T22:58:12.160Z,14.77
2023-04-18T23:00:39.754Z,14.86
2023-04-18T23:03:07.375Z,14.68
2023-04-18T23:05:35.456Z,14.80
2023-04-18T23:08:03.039Z,14.73
2023-04-18T23:10:30.554Z,14.66
2023-04-18T23:12:57.944Z,14.87
2023-04-18T23:15:27.011Z,14.80
2023-04-18T23:17:54.727Z,14.69
2023-04-18T23:20:24.104Z,14.75
2023-04-18T23:22:51.995Z,14.71
2023-04-18T23:25:20.042Z,14.72
2023-04-18T23:27:47.966Z,14.70
2023-04-18T23:30:15.629Z,14.69
2023-04-18T23:32:43.172Z,14.67
